aviador You're here:

UATE Decoded Metar

SHEVCHENKO in KAZAKHSTAN
Report Time2017-10-20 17:30:00
UTC Time2017-10-20 18:03:40
Flight Rules vfr VFR
Wind330° at 6 kt
W.Decomp.*RWY 30: 5.5 kt HW 2.4 kt RCW
W.Rank330° ranks 19
Current wind is below 330° avg. (9.6)
Visibility9999 m
Phenomena:N/A
Clouds:N/A
Expected CloudBase > 400 ft AGL from Temp-Dew spread
CeilingNone
Temp11°C (ISA -4)
Dew Point10°C (94% RH)
AAT8.9°C
QNH1018 hPa
Density Alt-394 ft
Elevation72 ft
Report Wrong Elevation
Raw Report
METAR UATE 201730Z 33003MPS CAVOK 11/10 Q1018 R30/0///70 NOSIG RMK
QFE762/1016=

Extra information for UATE:More info

Metar Taf Metar & Taf Last 4 Metars F.Rules Stats Wind Profile Meteogram Temp Stats Airport Information Weather charts Add Link Nearby VenuesMetar ALERT Operation Metar Decoded Social comments